LFPO/ORY METAR and TAF weather

Enter ICAO airport designator
Station Type Date Time Source
LFPO METAR 2019/06/26 20:30 UTC NOAA

LFPO 262030Z 04014KT CAVOK 27/20 Q1021 NOSIG


Station Type Date Time Source
LFPO Decoded METAR 2019/06/26 20:30 UTC NOAA

Paris-Orly, France (LFPO) 48-44N 002-24E 96M
Jun 26, 2019 - 04:30 PM EDT / 2019.06.26 2030 UTC
Wind: from the NE (040 degrees) at 16 MPH (14 KT):0
Visibility: greater than 7 mile(s):0
Temperature: 80 F (27 C)
Dew Point: 68 F (20 C)
Relative Humidity: 65%
Pressure (altimeter): 30.15 in. Hg (1021 hPa)
ob: LFPO 262030Z 04014KT CAVOK 27/20 Q1021 NOSIG
cycle: 20

Station Type Date Time Source
LFPO TAF 2019/06/26 18:21 UTC NOAA

TAF LFPO 261700Z 2618/2724 04012KT CAVOK
TEMPO 2618/2723 04012G22KT

Example: see airport list